This is the latest recevied weather packets stored in our database for station/object DO5DHA-11. If no packets are shown the sender has not sent any weather packets the latest 1 day(s).
| Time | Temp. | Humidity | Pressure | Rain* | Wind** | Luminosity | Snow |
|---|---|---|---|---|---|---|---|
| 1778097546 | 14.44° C | 73% | 1006.9 hPa | 0 mm | - | - | - |
| 1778097246 | 14.44° C | 72% | 1006.9 hPa | 0 mm | - | - | - |
| 1778096346 | 14.44° C | 70% | 1006.7 hPa | 0 mm | - | - | - |
| 1778096046 | 15° C | 69% | 1006.5 hPa | 0 mm | - | - | - |
| 1778095446 | 15.56° C | 66% | 1006.4 hPa | 0 mm | - | - | - |
| 1778095146 | 15.56° C | 66% | 1006.2 hPa | 0 mm | - | - | - |
| 1778094846 | 15.56° C | 66% | 1005.9 hPa | 0 mm | - | - | - |
| 1778093646 | 15.56° C | 64% | 1005.7 hPa | 0 mm | - | - | - |
| 1778093046 | 15.56° C | 64% | 1005.7 hPa | 0 mm | - | - | - |
| 1778092746 | 15.56° C | 63% | 1005.5 hPa | 0 mm | - | - | - |
| 1778086446 | 17.78° C | 57% | 1004.7 hPa | 0 mm | - | - | - |
| 1778076546 | 21.11° C | 51% | 1004.4 hPa | 0 mm | - | - | - |
| 1778043545 | 11.67° C | 82% | 1004.7 hPa | 0 mm | - | - | - |
| 1778040545 | 11.67° C | 82% | 1004.7 hPa | 0 mm | - | - | - |
| 1778039345 | 12.22° C | 82% | 1005 hPa | 0 mm | - | - | - |
| 1778036645 | 12.22° C | 82% | 1005.5 hPa | 0 mm | - | - | - |
| 1778036345 | 12.22° C | 82% | 1005.5 hPa | 0 mm | - | - | - |
| 1778034845 | 12.22° C | 82% | 1005.5 hPa | 0 mm | - | - | - |
| 1778033045 | 12.22° C | 82% | 1005.4 hPa | 0 mm | - | - | - |
| 1778031845 | 12.78° C | 82% | 1005.2 hPa | 0 mm | - | - | - |
| 1778030645 | 12.78° C | 81% | 1005.5 hPa | 0 mm | - | - | - |
| 1778030045 | 12.78° C | 81% | 1005.5 hPa | 0 mm | - | - | - |
* Rain latest hour (hover to see other rain measurements)
** Current wind speed in m/s (hover to see current wind gust speed)